Decoded Metar for USCC (CHELYABINSK in RUSSIA) (IATA:CEK) | Meteo·Mobile Aviation Weather
aviador You're here:

USCC Decoded Metar

CHELYABINSK in RUSSIA
Report Time2019-02-18 09:30:00
UTC Time2019-02-18 09:51:08
Flight Rules ifr IFR
Wind130° at 10 kt
W.Decomp.*RWY 09: 8.9 kt HW 4.5 kt RCW
W.Rank130° ranks 19
Current wind is above 130° avg. (6.6)
Visibility2400 m
Phenomena:Light Snow
Mist
Clouds:Broken 008 Hf
Expected CloudBase > 800 ft AGL from Temp-Dew spread
Ceiling800 ft
Temp-5°C (ISA -18)
Dew Point-7°C (86% RH)
AAT-11.4°C
QNH0990 hPa
Density Alt-663 ft
Elevation768 ft
Report Wrong Elevation
Raw Report
USCC 180930Z 13005MPS 2400 -SN BR BKN008 M05/M07 Q0990 R09/420350
NOSIG RMK QFE722=

Extra information for USCC:More info

Metar Taf Metar & Taf Last 4 Metars F.Rules Stats Wind Profile Meteogram Temp Stats Airport Information Weather charts Add Link Nearby VenuesMetar ALERT Operation Metar Decoded Social comments